Chronik & Geschichte

Boeing Stearman am Flugplatz Konstanz

Mit seiner 107-jährigen Geschichte ist Konstanz der älteste Verkehrslandeplatz Deutschlands. Lesen Sie unsere Festschrift zum 100-jährigen Platzjubiläum oder entdecken Sie die ausführliche Flugplatzchronik auf der Website der Initiative PRO Flugplatz Konstanz.

Live am Platz

Die Bilder unserer Webcams werden alle 5 Minuten aktualisiert.

Sonnenaufgang:

03:59 UTC / 05:59 Lokal

Sonnenuntergang:

19:00 UTC / 21:00 Lokal

METAR (01.08.2021 17:20 UTC):

EDNY 011720Z 28003KT 9999 FEW021 BKN058 16/13 Q1014
VFR

TAF (01.08.2021 11:00 UTC):

TAF EDNY 011100Z 0112/0212 VRB02KT 9999 SCT009 BKN040 TEMPO 0112/0121 SHRA BKN008 BKN030CB TEMPO 0114/0118 23005KT

Alle Angaben unverbindlich und ohne Gewähr. Zeiten genähert.

Für den Verkehrslandeplatz Konstanz werden keine offiziellen Wetterinformationen ausgegeben. Daher werden zur Orientierung Daten des nahegelegenen Flughafens Friedrichshafen dargestellt.

Das Landeentgelt kann bei uns auch mit aerops bezahlt werden. Die App für's Handy ist kostenfrei erhältlich.